Time;durP1;ratioP1;P1;durP2;ratioP2;P2;SDS_P1;SDS_P2;PMS_P1;PMS_P2;Temp;Humidity;BMP_temperature;BMP_pressure;BME280_temperature;BME280_humidity;BME280_pressure;Samples;Min_cycle;Max_cycle;Signal;HPM_P1;HPM_P2
2023/02/08 00:20:46;;;;;;;97.90;54.85;;;13.60;2201.60;;;;;;4997012;28;20525;-82
2023/02/08 00:23:53;;;;;;;85.15;46.33;;;13.50;2201.60;;;;;;4945923;28;20110;-82
2023/02/08 00:26:54;;;;;;;132.45;62.05;;;13.40;2201.60;;;;;;4942257;29;20040;-80
2023/02/08 00:50:21;;;;;;;32.65;17.50;;;13.40;2201.60;;;;;;5100022;23;20070;-85
2023/02/08 03:42:49;;;;;;;244.13;79.63;;;12.90;2201.60;;;;;;5078277;23;20042;-86
2023/02/08 04:46:53;;;;;;;262.33;98.10;;;13.10;2201.60;;;;;;1276742;23;20354;-84
2023/02/08 04:57:02;;;;;;;203.05;79.72;;;13.00;2201.60;;;;;;5002550;28;20061;-86
2023/02/08 05:17:02;;;;;;;77.15;33.60;;;13.20;2201.60;;;;;;5002004;28;20061;-85
2023/02/08 07:35:28;;;;;;;269.65;101.65;;;13.10;2201.60;;;;;;4973473;28;20038;-84
2023/02/08 07:39:09;;;;;;;668.17;268.58;;;13.00;2201.60;;;;;;5169674;23;20033;-85
2023/02/08 07:42:22;;;;;;;476.42;213.55;;;13.10;2201.60;;;;;;4991972;28;20037;-85
2023/02/08 07:45:26;;;;;;;145.20;77.35;;;13.00;2201.60;;;;;;4979258;28;20027;-84
2023/02/08 09:11:45;;;;;;;125.80;72.68;;;26.00;2201.60;;;;;;5002369;28;20046;-87
2023/02/08 09:28:03;;;;;;;309.90;150.95;;;26.30;2201.60;;;;;;4997277;28;20045;-84
2023/02/08 09:37:30;;;;;;;1960.95;708.50;;;26.20;2201.60;;;;;;4973703;28;20054;-85
2023/02/08 09:41:06;;;;;;;883.47;425.65;;;26.30;2201.60;;;;;;4922378;29;20025;-84
2023/02/08 10:24:24;;;;;;;1028.57;409.50;;;51.80;2227.20;;;;;;4980807;28;20022;-83
2023/02/08 10:27:16;;;;;;;305.17;166.93;;;51.80;2227.20;;;;;;5058905;23;20081;-81
2023/02/08 10:30:27;;;;;;;315.13;140.70;;;51.70;2227.20;;;;;;4961121;28;20030;-82
2023/02/08 10:33:06;;;;;;;221.63;82.90;;;51.90;2227.20;;;;;;4955807;28;20050;-82
2023/02/08 10:36:04;;;;;;;212.05;94.82;;;51.90;2227.20;;;;;;4978086;28;20025;-82
2023/02/08 10:39:17;;;;;;;259.10;109.93;;;51.90;2227.20;;;;;;4980430;28;20038;-81
2023/02/08 10:42:21;;;;;;;268.13;141.13;;;76.80;2227.20;;;;;;4970838;28;20102;-82
2023/02/08 10:45:32;;;;;;;175.23;92.30;;;77.10;2227.20;;;;;;4927495;28;20058;-83
2023/02/08 10:49:34;;;;;;;151.38;79.47;;;76.90;2227.20;;;;;;4907855;28;20037;-87
2023/02/08 10:54:54;;;;;;;70.85;41.05;;;77.00;2227.20;;;;;;4975716;28;20031;-82
2023/02/08 11:00:44;;;;;;;140.93;61.92;;;76.90;2227.20;;;;;;4977264;28;20045;-83
2023/02/08 11:03:38;;;;;;;68.65;37.13;;;76.90;2227.20;;;;;;4974423;28;20007;-79
2023/02/08 11:06:41;;;;;;;352.30;148.57;;;77.10;2227.20;;;;;;4866487;29;20022;-83
2023/02/08 11:09:49;;;;;;;169.85;84.90;;;77.20;2227.20;;;;;;4832142;29;20034;-82
2023/02/08 11:24:04;;;;;;;30.38;19.83;;;77.50;2227.20;;;;;;4978957;28;20042;-83
2023/02/08 11:27:10;;;;;;;42.40;23.25;;;77.70;2227.20;;;;;;4946961;28;20023;-82
2023/02/08 11:30:20;;;;;;;49.88;25.40;;;102.50;2227.20;;;;;;4940585;29;20036;-82
2023/02/08 11:34:21;;;;;;;42.67;23.42;;;102.60;2227.20;;;;;;4968459;29;20103;-82
2023/02/08 11:37:48;;;;;;;32.47;19.27;;;102.70;2227.20;;;;;;4924776;29;20039;-84
2023/02/08 11:41:32;;;;;;;47.45;24.40;;;102.60;2227.20;;;;;;4977868;28;20084;-83
2023/02/08 11:48:06;;;;;;;40.22;21.58;;;102.90;2227.20;;;;;;4945986;29;20050;-85
2023/02/08 12:05:48;;;;;;;52.33;31.75;;;128.50;2252.80;;;;;;1027742;23;20360;-78
2023/02/08 12:22:50;;;;;;;28.13;20.52;;;103.30;2227.20;;;;;;4969642;28;20047;-82
2023/02/08 12:59:00;;;;;;;28.52;18.50;;;179.30;2099.20;;;;;;4992028;23;20030;-85
2023/02/08 13:01:56;;;;;;;46.33;30.85;;;153.80;2124.80;;;;;;4985159;28;20035;-85
2023/02/08 13:04:40;;;;;;;36.95;23.00;;;128.20;2124.80;;;;;;4997020;28;20039;-81
2023/02/08 13:07:32;;;;;;;37.55;23.58;;;128.10;2201.60;;;;;;4992619;28;20470;-82
2023/02/08 13:10:58;;;;;;;41.72;24.83;;;103.20;2150.40;;;;;;4954898;28;20066;-82
2023/02/08 13:14:30;;;;;;;35.90;22.58;;;103.00;2176.00;;;;;;4980254;28;20027;-84
2023/02/08 13:17:23;;;;;;;45.97;29.02;;;103.00;2227.20;;;;;;4999870;28;20031;-81
2023/02/08 13:20:40;;;;;;;42.55;28.60;;;103.00;2227.20;;;;;;4999997;28;20039;-83
2023/02/08 13:23:58;;;;;;;44.47;27.67;;;102.90;2227.20;;;;;;4995301;28;20022;-85
2023/02/08 13:26:42;;;;;;;48.78;29.60;;;102.80;2227.20;;;;;;4947521;23;20025;-84
2023/02/08 13:29:26;;;;;;;60.33;36.58;;;102.80;2227.20;;;;;;4949504;28;20105;-85
2023/02/08 13:32:17;;;;;;;63.28;41.25;;;102.80;2227.20;;;;;;4983507;28;20027;-81
2023/02/08 13:35:02;;;;;;;53.25;32.60;;;102.70;2227.20;;;;;;4981880;28;20018;-84
2023/02/08 13:40:35;;;;;;;39.63;27.30;;;102.60;2201.60;;;;;;4997234;28;20073;-80
2023/02/08 13:46:59;;;;;;;32.05;21.05;;;102.50;2227.20;;;;;;5040855;23;20133;-82
2023/02/08 13:52:35;;;;;;;27.92;17.40;;;102.40;2227.20;;;;;;5035651;23;20042;-83
2023/02/08 13:55:45;;;;;;;48.42;27.90;;;77.70;2227.20;;;;;;5010262;28;20015;-80
2023/02/08 13:58:49;;;;;;;75.72;43.08;;;102.40;2227.20;;;;;;5017870;28;20062;-85
2023/02/08 14:04:26;;;;;;;47.42;28.85;;;102.40;2227.20;;;;;;5015811;28;19916;-81
2023/02/08 14:06:59;;;;;;;78.70;50.40;;;102.40;2227.20;;;;;;4998826;28;20019;-81
2023/02/08 14:09:44;;;;;;;66.75;43.25;;;102.40;2227.20;;;;;;4999691;28;20034;-81
2023/02/08 14:12:23;;;;;;;71.13;48.10;;;102.40;2227.20;;;;;;5015753;28;20045;-81
2023/02/08 14:15:42;;;;;;;57.78;39.78;;;102.40;2227.20;;;;;;5002722;28;20042;-83
2023/02/08 14:18:56;;;;;;;48.30;32.72;;;77.70;2227.20;;;;;;4924349;29;20100;-83
2023/02/08 14:21:43;;;;;;;66.22;38.40;;;77.60;2227.20;;;;;;4941886;28;20068;-82
2023/02/08 14:24:57;;;;;;;59.10;38.35;;;77.60;2227.20;;;;;;5016391;28;20018;-81
2023/02/08 14:30:15;;;;;;;80.03;55.08;;;77.60;2227.20;;;;;;4992279;28;20035;-81
2023/02/08 14:33:11;;;;;;;57.65;37.25;;;77.60;2227.20;;;;;;4958843;28;20042;-83
2023/02/08 14:36:02;;;;;;;46.38;32.47;;;77.50;2227.20;;;;;;4997182;28;20015;-82
2023/02/08 14:39:49;;;;;;;79.32;47.10;;;77.50;2227.20;;;;;;5042164;23;20032;-83
2023/02/08 14:46:44;;;;;;;74.78;41.25;;;77.50;2227.20;;;;;;5023142;23;20038;-84
2023/02/08 14:49:50;;;;;;;64.95;41.45;;;77.40;2227.20;;;;;;5010839;28;20053;-84
2023/02/08 14:52:55;;;;;;;64.25;44.55;;;77.40;2227.20;;;;;;4976242;28;20098;-85
2023/02/08 14:55:53;;;;;;;81.35;53.42;;;77.30;2227.20;;;;;;4993147;28;20031;-85
2023/02/08 14:58:44;;;;;;;89.95;50.55;;;77.30;2227.20;;;;;;5014614;28;20065;-83
2023/02/08 15:01:43;;;;;;;91.28;51.95;;;77.40;2227.20;;;;;;4999344;28;20485;-82
2023/02/08 15:04:40;;;;;;;109.47;59.95;;;77.40;2227.20;;;;;;4999638;28;20026;-84
2023/02/08 15:07:49;;;;;;;77.05;45.08;;;77.30;2227.20;;;;;;5038200;23;20074;-81
2023/02/08 15:10:18;;;;;;;76.25;45.75;;;77.30;2227.20;;;;;;4982595;28;20029;-82
2023/02/08 15:12:49;;;;;;;79.70;50.38;;;77.30;2227.20;;;;;;4960475;28;20015;-81
2023/02/08 15:15:47;;;;;;;88.72;50.63;;;77.20;2227.20;;;;;;4981508;28;20038;-83
2023/02/08 15:18:28;;;;;;;81.63;50.38;;;77.20;2227.20;;;;;;4980188;28;20042;-82
2023/02/08 15:26:25;;;;;;;148.70;74.75;;;76.90;2227.20;;;;;;4957543;29;20048;-84
2023/02/08 15:28:52;;;;;;;127.10;69.38;;;;;;;;;;4955197;29;20016;-82
2023/02/08 15:31:22;;;;;;;91.90;50.22;;;;;;;;;;4956081;29;20024;-83
2023/02/08 15:34:31;;;;;;;99.30;56.13;;;77.00;2227.20;;;;;;4958505;29;20101;-84
2023/02/08 15:41:02;;;;;;;111.50;65.45;;;76.90;2227.20;;;;;;5010053;28;20057;-83
2023/02/08 15:43:37;;;;;;;115.45;64.47;;;76.90;2227.20;;;;;;4998825;28;20034;-83
2023/02/08 15:46:16;;;;;;;124.45;71.13;;;76.80;2227.20;;;;;;4980829;28;20078;-82
2023/02/08 15:49:15;;;;;;;105.78;63.10;;;76.80;2227.20;;;;;;4980124;28;20045;-82
2023/02/08 15:51:45;;;;;;;108.10;64.25;;;52.10;2227.20;;;;;;4995732;28;20039;-82
2023/02/08 15:54:37;;;;;;;101.05;60.05;;;52.10;2227.20;;;;;;4996638;28;20035;-83
2023/02/08 15:58:02;;;;;;;99.15;61.40;;;52.00;2227.20;;;;;;4998311;28;20018;-85
2023/02/08 16:03:38;;;;;;;89.85;53.30;;;52.00;2227.20;;;;;;5013974;28;20066;-81
2023/02/08 16:06:09;;;;;;;80.72;51.85;;;51.90;2227.20;;;;;;4979696;28;20034;-85
2023/02/08 16:08:51;;;;;;;64.65;40.63;;;51.90;2227.20;;;;;;4978174;28;20042;-82
2023/02/08 16:11:26;;;;;;;81.75;51.47;;;51.90;2227.20;;;;;;4976132;28;20023;-82
2023/02/08 16:13:58;;;;;;;87.95;52.25;;;51.90;2227.20;;;;;;4974211;28;20021;-84
2023/02/08 16:17:16;;;;;;;86.72;54.38;;;51.80;2227.20;;;;;;4978278;28;20022;-84
2023/02/08 16:20:29;;;;;;;79.07;48.60;;;51.80;2227.20;;;;;;4956153;28;20079;-81
2023/02/08 16:23:48;;;;;;;81.15;45.80;;;51.70;2227.20;;;;;;4946445;28;20016;-85
2023/02/08 16:26:59;;;;;;;78.70;46.80;;;51.70;2227.20;;;;;;4942582;29;20040;-85
2023/02/08 16:30:30;;;;;;;72.18;46.05;;;51.60;2227.20;;;;;;4959769;28;20087;-83
2023/02/08 16:33:17;;;;;;;88.47;49.00;;;51.60;2227.20;;;;;;4955112;28;20016;-82
2023/02/08 16:36:31;;;;;;;65.72;42.58;;;51.60;2227.20;;;;;;4962648;28;20052;-85
2023/02/08 16:39:31;;;;;;;75.75;47.17;;;51.60;2227.20;;;;;;4929505;28;20039;-84
2023/02/08 16:42:43;;;;;;;90.78;57.42;;;51.50;2227.20;;;;;;4961631;28;20469;-84
2023/02/08 16:45:31;;;;;;;75.35;48.83;;;51.50;2227.20;;;;;;4946333;29;20051;-82
2023/02/08 16:47:58;;;;;;;67.05;44.85;;;51.50;2227.20;;;;;;4944204;29;20031;-82
2023/02/08 16:50:37;;;;;;;68.25;42.63;;;51.40;2227.20;;;;;;4946463;29;20050;-85
2023/02/08 16:53:32;;;;;;;75.37;45.67;;;51.40;2227.20;;;;;;4958639;28;20016;-85
2023/02/08 16:56:31;;;;;;;72.25;42.00;;;51.30;2227.20;;;;;;4961925;28;20031;-82
2023/02/08 16:59:36;;;;;;;76.75;46.90;;;51.30;2227.20;;;;;;4921149;28;20040;-81
2023/02/08 17:02:52;;;;;;;80.85;47.20;;;51.30;2227.20;;;;;;4860780;29;20022;-83
2023/02/08 17:06:10;;;;;;;95.20;56.63;;;51.30;2227.20;;;;;;4877276;29;20039;-82
2023/02/08 17:08:40;;;;;;;74.75;47.17;;;51.20;2227.20;;;;;;4940019;29;20047;-82
2023/02/08 17:11:10;;;;;;;71.35;43.58;;;51.20;2227.20;;;;;;4943252;29;20028;-82
2023/02/08 17:13:37;;;;;;;74.43;47.22;;;51.50;2227.20;;;;;;4941048;29;20019;-82
2023/02/08 17:16:27;;;;;;;67.75;41.38;;;51.40;2227.20;;;;;;4944217;29;20103;-82
2023/02/08 17:18:56;;;;;;;58.47;37.60;;;51.20;2227.20;;;;;;4944406;29;20035;-81
2023/02/08 17:21:26;;;;;;;69.65;40.42;;;51.20;2227.20;;;;;;4943750;29;20117;-81
2023/02/08 17:24:00;;;;;;;73.60;45.72;;;51.20;2227.20;;;;;;4943236;29;20039;-82
2023/02/08 17:26:32;;;;;;;77.40;49.73;;;;;;;;;;4958980;29;20039;-81
2023/02/08 17:29:39;;;;;;;68.85;41.22;;;;;;;;;;4947617;29;20020;-84
2023/02/08 17:32:10;;;;;;;75.68;46.20;;;77.10;2227.20;;;;;;4959843;29;20012;-81
2023/02/08 17:34:39;;;;;;;80.53;50.13;;;;;;;;;;4955264;29;20044;-82
2023/02/08 17:37:07;;;;;;;78.28;50.60;;;51.20;2227.20;;;;;;4940033;29;20184;-81
2023/02/08 17:39:44;;;;;;;122.18;81.07;;;26.40;2201.60;;;;;;4958340;29;20040;-82
2023/02/08 17:42:16;;;;;;;82.80;52.75;;;26.40;2201.60;;;;;;4959348;29;20047;-81
2023/02/08 17:45:09;;;;;;;83.07;50.97;;;26.40;2201.60;;;;;;4957915;29;20040;-84
2023/02/08 17:48:33;;;;;;;79.25;46.35;;;26.20;2201.60;;;;;;4960968;29;20016;-83
2023/02/08 17:51:54;;;;;;;82.47;50.47;;;26.20;2201.60;;;;;;4960823;29;20015;-83
2023/02/08 17:54:43;;;;;;;73.65;42.30;;;26.20;2201.60;;;;;;4939343;29;20028;-83
2023/02/08 17:57:47;;;;;;;69.18;41.45;;;26.50;2201.60;;;;;;4961740;29;20032;-82
2023/02/08 18:01:16;;;;;;;68.75;39.38;;;26.20;2201.60;;;;;;4976256;28;20062;-84
2023/02/08 18:04:47;;;;;;;69.60;40.53;;;26.10;2201.60;;;;;;4923227;29;20025;-83
2023/02/08 18:07:33;;;;;;;68.15;34.33;;;26.10;2201.60;;;;;;4917260;29;20265;-81
2023/02/08 18:10:48;;;;;;;53.67;33.00;;;26.00;2201.60;;;;;;4913173;29;20038;-82
2023/02/08 18:13:16;;;;;;;46.13;27.88;;;26.10;2201.60;;;;;;4907675;29;20024;-84
2023/02/08 18:18:55;;;;;;;59.00;36.67;;;26.10;2201.60;;;;;;4908117;29;20053;-81
2023/02/08 18:21:43;;;;;;;57.25;39.28;;;26.00;2201.60;;;;;;4920911;29;20029;-82
2023/02/08 18:24:21;;;;;;;59.97;36.95;;;25.90;2201.60;;;;;;4865725;29;20029;-85
2023/02/08 18:27:11;;;;;;;77.10;48.00;;;25.90;2201.60;;;;;;4885308;29;20056;-82
2023/02/08 18:30:32;;;;;;;91.63;50.65;;;26.10;2201.60;;;;;;4885090;29;20018;-82
2023/02/08 18:33:22;;;;;;;91.40;48.15;;;25.90;2201.60;;;;;;4889684;29;20105;-85
2023/02/08 18:36:29;;;;;;;115.30;51.97;;;26.00;2201.60;;;;;;4940740;29;20023;-86
2023/02/08 18:39:37;;;;;;;80.65;49.95;;;25.90;2201.60;;;;;;4934458;29;20027;-82
2023/02/08 18:42:10;;;;;;;104.57;59.20;;;25.90;2201.60;;;;;;4936089;29;20040;-84
2023/02/08 18:44:38;;;;;;;101.93;60.38;;;26.40;2201.60;;;;;;4920202;29;20056;-80
2023/02/08 18:47:08;;;;;;;108.00;59.85;;;25.80;2201.60;;;;;;4918703;29;20032;-82
2023/02/08 18:49:56;;;;;;;95.00;59.22;;;25.70;2201.60;;;;;;4936395;29;20056;-82
2023/02/08 18:52:33;;;;;;;94.18;59.15;;;25.70;2201.60;;;;;;4923025;29;20047;-85
2023/02/08 18:55:00;;;;;;;102.40;56.22;;;26.50;2201.60;;;;;;4904471;29;20037;-81
2023/02/08 18:57:28;;;;;;;80.88;47.55;;;25.70;2201.60;;;;;;4919318;29;20020;-80
2023/02/08 19:00:02;;;;;;;70.80;44.40;;;0.80;2201.60;;;;;;4921412;29;20052;-82
2023/02/08 19:02:51;;;;;;;49.75;33.92;;;0.60;2201.60;;;;;;4895221;29;20044;-81
2023/02/08 19:05:32;;;;;;;41.10;26.85;;;0.50;2201.60;;;;;;4908936;29;20515;-83
2023/02/08 19:08:23;;;;;;;51.30;29.60;;;0.30;2201.60;;;;;;4907990;29;20040;-80
2023/02/08 19:11:44;;;;;;;61.70;36.25;;;0.50;2201.60;;;;;;4937121;29;20070;-80
2023/02/08 19:14:31;;;;;;;141.55;75.97;;;0.30;2201.60;;;;;;4948758;28;20035;-83
2023/02/08 19:17:03;;;;;;;191.57;99.43;;;0.30;2201.60;;;;;;4977297;28;20027;-80
2023/02/08 19:19:31;;;;;;;208.10;105.18;;;0.20;2201.60;;;;;;4984889;28;20054;-80
2023/02/08 19:22:00;;;;;;;188.13;103.00;;;0.30;2201.60;;;;;;4975760;28;20030;-80
2023/02/08 19:24:28;;;;;;;142.50;83.55;;;0.30;2201.60;;;;;;4981300;28;20034;-79
2023/02/08 19:26:54;;;;;;;168.90;93.20;;;0.40;2201.60;;;;;;4983534;28;20034;-80
2023/02/08 19:29:21;;;;;;;161.80;92.70;;;0.40;2201.60;;;;;;5021993;28;20037;-81
2023/02/08 19:31:47;;;;;;;140.65;81.32;;;0.30;2201.60;;;;;;5006079;28;20025;-80
2023/02/08 19:34:13;;;;;;;138.00;77.13;;;0.30;2201.60;;;;;;4990555;28;20034;-80
2023/02/08 19:36:43;;;;;;;122.00;70.03;;;0.20;2201.60;;;;;;5019335;28;20030;-80
2023/02/08 19:39:24;;;;;;;106.40;60.65;;;0.20;2201.60;;;;;;5006505;23;20045;-80
2023/02/08 19:42:27;;;;;;;108.10;63.92;;;0.30;2201.60;;;;;;4973398;28;20031;-80
2023/02/08 19:46:10;;;;;;;117.07;73.93;;;0.20;2201.60;;;;;;4955104;28;20039;-81
2023/02/08 19:48:39;;;;;;;137.07;77.60;;;0.10;2201.60;;;;;;4955671;28;20039;-80
2023/02/08 19:51:56;;;;;;;98.95;57.47;;;0.20;2201.60;;;;;;4979926;28;20015;-80
2023/02/08 19:54:30;;;;;;;69.47;42.83;;;0.10;2201.60;;;;;;4997963;28;20034;-78
2023/02/08 19:56:56;;;;;;;71.72;45.17;;;0.10;2201.60;;;;;;4968244;28;20018;-79
2023/02/08 19:59:26;;;;;;;74.03;46.90;;;0.00;2201.60;;;;;;4988354;28;20098;-80
2023/02/08 20:01:53;;;;;;;80.43;47.28;;;0.00;2201.60;;;;;;4988576;28;20419;-79
2023/02/08 20:04:20;;;;;;;72.28;45.17;;;12.90;2201.60;;;;;;4979039;28;20026;-79
2023/02/08 20:07:12;;;;;;;69.55;42.33;;;12.90;2201.60;;;;;;4980193;28;20010;-82
2023/02/08 20:13:53;;;;;;;72.00;42.10;;;12.90;2201.60;;;;;;5019095;28;20053;-81
2023/02/08 20:17:24;;;;;;;73.40;44.35;;;12.90;2201.60;;;;;;5021137;28;20037;-81
2023/02/08 20:20:06;;;;;;;69.80;44.40;;;12.90;2201.60;;;;;;5018120;28;20588;-80
2023/02/08 20:23:00;;;;;;;94.30;51.60;;;0.10;2201.60;;;;;;5011608;28;20062;-83
2023/02/08 20:29:09;;;;;;;87.90;49.03;;;12.90;2201.60;;;;;;4978018;28;20115;-80
2023/02/08 20:31:58;;;;;;;103.03;56.67;;;13.10;2201.60;;;;;;4958027;29;20027;-82
2023/02/08 20:34:24;;;;;;;93.43;53.08;;;13.00;2201.60;;;;;;4958315;29;20039;-79
2023/02/08 20:37:54;;;;;;;67.20;40.85;;;13.10;2201.60;;;;;;4959492;29;20031;-81
2023/02/08 20:41:29;;;;;;;58.20;35.83;;;13.00;2201.60;;;;;;4920526;29;20061;-80
2023/02/08 20:51:22;;;;;;;125.43;64.10;;;13.50;2201.60;;;;;;4979631;29;20047;-80
2023/02/08 20:54:48;;;;;;;147.18;83.63;;;13.50;2201.60;;;;;;4942531;29;20017;-83
2023/02/08 20:58:10;;;;;;;109.53;61.63;;;13.60;2201.60;;;;;;5010708;28;20042;-82
2023/02/08 21:01:30;;;;;;;132.02;72.38;;;13.60;2201.60;;;;;;4995113;28;20035;-81
2023/02/08 21:04:21;;;;;;;115.18;62.58;;;13.70;2201.60;;;;;;4938474;29;20036;-81
2023/02/08 21:07:32;;;;;;;115.05;60.97;;;38.40;2201.60;;;;;;4936444;29;20079;-81
2023/02/08 21:11:11;;;;;;;148.57;74.20;;;13.70;2201.60;;;;;;4924190;29;20032;-80
2023/02/08 21:13:47;;;;;;;128.50;65.88;;;13.60;2201.60;;;;;;4936468;29;20500;-83
2023/02/08 21:16:17;;;;;;;142.13;74.88;;;13.60;2201.60;;;;;;4953983;29;20040;-83
2023/02/08 21:22:50;;;;;;;174.90;87.65;;;13.50;2201.60;;;;;;4960709;29;20035;-82
2023/02/08 21:26:21;;;;;;;148.60;78.72;;;13.50;2201.60;;;;;;4961548;29;20022;-82
2023/02/08 21:32:48;;;;;;;238.13;123.63;;;13.60;2201.60;;;;;;4884356;29;20136;-83
2023/02/08 21:35:51;;;;;;;294.70;146.95;;;13.70;2201.60;;;;;;4884580;29;20017;-82
2023/02/08 21:38:42;;;;;;;303.92;161.82;;;38.60;2201.60;;;;;;4932132;29;20085;-81
2023/02/08 21:41:43;;;;;;;322.50;174.50;;;38.60;2201.60;;;;;;4935385;29;20054;-82
2023/02/08 21:44:53;;;;;;;494.17;234.55;;;38.40;2201.60;;;;;;4919332;29;20036;-80
2023/02/08 21:54:42;;;;;;;284.08;150.90;;;38.70;2201.60;;;;;;4893619;29;20040;-82
2023/02/08 21:57:44;;;;;;;255.98;131.13;;;38.80;2201.60;;;;;;4909978;29;20029;-83
2023/02/08 22:00:30;;;;;;;187.73;102.70;;;38.70;2201.60;;;;;;4932649;29;20047;-81
2023/02/08 22:02:56;;;;;;;223.82;117.63;;;38.60;2201.60;;;;;;4933024;29;20388;-81
2023/02/08 22:08:09;;;;;;;371.40;181.88;;;38.50;2201.60;;;;;;4916163;29;20070;-80
2023/02/08 22:10:36;;;;;;;312.60;159.85;;;38.60;2201.60;;;;;;4929325;29;20040;-81
2023/02/08 22:13:02;;;;;;;224.13;123.22;;;38.50;2201.60;;;;;;4931853;29;20052;-81
2023/02/08 22:15:29;;;;;;;141.32;86.22;;;38.60;2201.60;;;;;;4916002;29;20119;-81
2023/02/08 22:18:12;;;;;;;119.05;67.68;;;64.30;2201.60;;;;;;4933138;29;20115;-81
2023/02/08 22:20:38;;;;;;;;;;;39.00;2201.60;;;;;;4904704;29;20036;-82
2023/02/08 22:23:04;;;;;;;88.47;45.03;;;39.20;2201.60;;;;;;4931238;29;19918;-81
2023/02/08 22:25:31;;;;;;;96.97;51.55;;;89.70;2176.00;;;;;;4930665;29;20059;-81
2023/02/08 22:27:57;;;;;;;112.38;65.25;;;39.30;2201.60;;;;;;4927271;29;20028;-80
2023/02/08 22:30:27;;;;;;;180.13;96.13;;;39.30;2201.60;;;;;;4911300;29;20461;-80
2023/02/08 22:32:59;;;;;;;227.50;115.00;;;39.20;2201.60;;;;;;4931710;29;20043;-82
2023/02/08 22:35:43;;;;;;;224.27;117.30;;;39.10;2201.60;;;;;;4935522;29;20032;-83
2023/02/08 22:38:13;;;;;;;197.02;103.30;;;39.10;2201.60;;;;;;4937641;29;20319;-80
2023/02/08 22:41:00;;;;;;;168.15;94.03;;;39.00;2201.60;;;;;;4940562;29;20016;-83
2023/02/08 22:44:09;;;;;;;148.27;85.40;;;39.10;2201.60;;;;;;4942343;28;20107;-81
2023/02/08 22:46:49;;;;;;;143.23;79.38;;;64.00;2201.60;;;;;;5014318;28;20030;-82
2023/02/08 22:49:19;;;;;;;165.48;88.13;;;39.30;2201.60;;;;;;5014084;28;20035;-81
2023/02/08 22:51:47;;;;;;;200.63;105.15;;;64.30;2201.60;;;;;;4982257;28;20021;-82
2023/02/08 22:54:18;;;;;;;167.85;91.38;;;39.30;2201.60;;;;;;5019501;28;20034;-79
2023/02/08 22:56:43;;;;;;;173.88;92.53;;;64.00;2201.60;;;;;;4999681;28;20030;-80
2023/02/08 22:59:09;;;;;;;217.57;115.25;;;64.10;2201.60;;;;;;4994409;28;20049;-77
2023/02/08 23:01:37;;;;;;;251.90;136.75;;;64.00;2201.60;;;;;;4994440;28;20104;-78
2023/02/08 23:04:03;;;;;;;243.85;130.23;;;64.10;2201.60;;;;;;5000739;28;20042;-80
2023/02/08 23:06:30;;;;;;;256.38;127.22;;;64.20;2201.60;;;;;;5002023;28;20021;-80
2023/02/08 23:09:09;;;;;;;253.35;138.75;;;64.20;2201.60;;;;;;5018202;28;20018;-80
2023/02/08 23:11:35;;;;;;;169.23;93.45;;;64.10;2201.60;;;;;;4990838;28;20505;-80
2023/02/08 23:14:02;;;;;;;274.50;131.45;;;64.30;2201.60;;;;;;4989251;28;20505;-80
2023/02/08 23:16:29;;;;;;;289.30;149.00;;;64.20;2201.60;;;;;;4981756;28;20030;-81
2023/02/08 23:18:58;;;;;;;257.75;137.90;;;64.10;2201.60;;;;;;4999398;28;20065;-80
2023/02/08 23:21:26;;;;;;;248.02;127.45;;;64.00;2201.60;;;;;;5002323;28;20054;-83
2023/02/08 23:24:16;;;;;;;209.40;109.68;;;64.20;2201.60;;;;;;5002387;28;20044;-80
2023/02/08 23:26:46;;;;;;;149.30;83.75;;;64.10;2201.60;;;;;;4986415;28;20052;-83
2023/02/08 23:29:15;;;;;;;148.55;76.18;;;64.20;2201.60;;;;;;5019474;28;20030;-81
2023/02/08 23:32:04;;;;;;;128.65;67.68;;;64.00;2201.60;;;;;;5002480;28;20034;-83
2023/02/08 23:34:33;;;;;;;145.77;74.55;;;38.90;2201.60;;;;;;5018219;28;20033;-81
2023/02/08 23:37:00;;;;;;;144.27;73.93;;;64.20;2201.60;;;;;;4990572;28;20010;-81
2023/02/08 23:39:28;;;;;;;168.40;89.15;;;64.20;2201.60;;;;;;4978218;28;20054;-80
2023/02/08 23:42:00;;;;;;;161.48;83.97;;;64.20;2201.60;;;;;;4999059;28;20098;-83
2023/02/08 23:44:26;;;;;;;160.20;86.60;;;64.20;2201.60;;;;;;4995828;28;20030;-80
2023/02/08 23:46:53;;;;;;;236.77;121.63;;;38.40;2201.60;;;;;;4996176;28;20090;-83
2023/02/08 23:49:33;;;;;;;257.20;133.88;;;64.00;2201.60;;;;;;4996441;28;20135;-83
2023/02/08 23:52:46;;;;;;;151.95;78.15;;;64.10;2201.60;;;;;;4996439;28;20081;-83
2023/02/08 23:59:57;;;;;;;84.90;45.38;;;64.60;2201.60;;;;;;5012862;28;20045;-85
